Warning: Javascript must be enabled to use all the features on this page!


Page Loading - Please Wait...

Click to hideNews Bulletins

Peak Streamflow for the Nation

USGS 05438500 KISHWAUKEE RIVER AT BELVIDERE, IL

Boone County, Illinois
Hydrologic Unit Code 07090006
Latitude  42°15'22", Longitude  88°51'47" NAD27
Drainage area 538  square miles
Gage datum 738.50 feet above NAVD88
Output formats
Table
Graph
Tab-separated file
peakfq (watstore) format
Reselect output format
Water
Year
Date Gage
Height
(feet)
Stream-
flow
(cfs)
1940 1940-06-19 10.00 1,330
1941 1941-03-22 10.58 2,240
1942 1941-10-24 10.89 3,230
1943 1943-03-16 13.10 10,300
1944 1944-03-15 12.56 9,200
1945 1945-05-18 5.90 1,850
1946 1946-01-06 12.90 9,830
1947 1947-06-02 6.20 2,170
1948 1948-03-20 12.00 8,000
1949 1949-02-25 10.50 5,750
1950 1950-04-26 10.10 5,240
1951 1951-02-26 11.00 6,410
1952 1952-03-12 11.24 6,690
1953 1953-06-12 5.58 1,850
1954 1954-04-26 8.00 3,290
1955 1955-02-21 6.08 2,140
1956 1956-04-30 3.87 935
1957 1957-05-21 4.23 1,070
1958 1958-02-28 4.56 1,270
1959 1959-03-20 8.30 3,330
1960 1960-03-31 12.70 8,230
1961 1961-03-15 4.82 1,420
1962 1962-03-21 9.50 4,600
1963 1963-03-17 3.57 955
1964 1964-04-06 3.97 1,090
1965 1965-02-08 10.311 3,3002
1966 1966-02-10 10.50 5,450
1967 1967-06-12 8.12 3,550
1968 1968-08-17 5.91 2,150
1969 1969-06-09 8.67 3,640
1970 1970-06-04 6.96 2,790
1971 1971-02-20 12.74 8,350
1972 1972-09-19 11.80 6,700
1973 1973-04-22 11.07 6,270
1974 1974-05-17 11.42 6,620
1975 1975-03-19 8.31 3,840
1976 1976-03-05 10.92 6,130
1977 1977-07-15 5.64 1,980
1978 1978-07-03 12.88 8,340
1979 1979-03-20 12.76 9,040
1980 1980-09-14 5.67 2,090
1981 1981-06-14 4.44 1,480
1982 1982-03-14 9.50 4,670
1983 1982-12-03 10.92 6,470
1984 1984-02-13 9.80 5,070
1985 1985-02-25 8.462 3,900
1986 1986-03-11 9.41 4,660
1987 1987-08-14 9.34 4,590
1988 1988-02-01 8.542 3,960
1989 1989-09-02 5.29 1,830
1990 1990-03-14 6.53 2,580
1991 1991-03-28 8.85 4,240
1992 1992-09-18 4.89 1,710
1993 1993-07-01 11.91 7,870
1994 1994-02-20 14.19 11,900
1995 1995-04-28 6.07 2,360
1996 1996-05-21 10.45 5,860
1997 1997-02-22 11.74 7,620
1998 1998-06-26 8.04 3,570C
1999 1999-06-14 13.97 11,400C
2000 2000-06-13 10.69 5,730C
2001 2001-02-26 8.70 4,040C
2002 2002-06-05 9.77 5,040C
2003 2003-07-15 3.10 896C
2004 2004-05-24 8.59 3,960C
2005 2005-02-15 6.60 2,610C
2006 2006-03-14 4.26 1,290C
2007 2007-08-21 11.60 7,420C
2008 2008-03-04 9.22 4,810C
2009 2008-12-29 9.26 4,510C
2010 2010-05-14 8.82 4,120C
2011 2011-03-23   1,8502,C
2012 2011-11-10 5.11 1,720C
2013 2013-04-19 12.31 8,480C
2014 2014-03-16 5.78 2,200C
2015 2015-07-19 6.42 2,570C
2016 2015-11-28 6.48 2,610C
2017 2017-07-23 10.35 5,620C
2018 2018-09-04 12.00 7,780C
2019 2019-09-14 11.21 7,290C
2020 2020-05-19 10.59 6,040C
2021 2021-03-11 5.90 2,260C
?
  Peak Gage-Height Qualification Codes.
?
  Peak Streamflow Qualification Codes.